EST,Max TemperatureF,Mean TemperatureF,Min TemperatureF,Max Dew PointF,MeanDew PointF,Min DewpointF,Max Humidity, Mean Humidity, Min Humidity, Max Sea Level PressureIn, Mean Sea Level PressureIn, Min Sea Level PressureIn, Max VisibilityMiles, Mean VisibilityMiles, Min VisibilityMiles, Max Wind SpeedMPH, Mean Wind SpeedMPH, Max Gust SpeedMPH,PrecipitationIn, CloudCover, Events, WindDirDegrees
2012-12-1,64,48,33,40,34,28,93,77,36,30.42,30.37,30.34,10,4,0,10,1,,0.00,0,Fog,99
2012-12-2,64,50,35,48,37,32,93,78,52,30.41,30.35,30.23,10,4,0,12,2,,0.00,1,Fog-Rain,205
2012-12-3,71,61,51,53,50,47,86,71,49,30.27,30.24,30.20,10,9,6,12,6,,0.00,2,,241
2012-12-4,75,62,48,53,49,45,93,72,43,30.30,30.24,30.14,10,6,0,14,3,,0.00,1,Fog,215
2012-12-5,63,52,41,54,44,32,93,78,63,30.25,30.16,30.07,10,6,0,13,7,,0.06,3,Fog-Rain,299
2012-12-6,46,40,33,30,29,27,85,66,47,30.38,30.31,30.25,10,10,8,10,5,17,0.00,0,,41
2012-12-7,62,48,33,55,44,29,89,76,60,30.24,30.10,29.98,10,10,6,10,3,,0.00,7,,129
2012-12-8,61,57,53,55,51,48,88,84,70,30.04,29.97,29.94,10,4,1,13,3,,0.01,6,,246
2012-12-9,66,55,44,56,49,43,93,84,68,30.14,30.09,30.00,10,3,0,12,3,,0.06,5,Fog-Rain,208
2012-12-10,71,66,62,63,59,54,88,76,63,29.98,29.79,29.66,10,10,7,17,9,24,0.00,4,,205
2012-12-11,68,58,48,56,42,34,78,61,52,30.19,29.95,29.70,10,10,10,13,9,,0.00,7,,19
2012-12-12,50,48,46,37,29,26,64,49,44,30.37,30.31,30.19,10,10,10,16,10,21,0.00,6,,34
2012-12-13,52,44,36,36,33,29,76,63,50,30.37,30.35,30.31,10,10,7,16,11,24,0.06,3,Rain,21
2012-12-14,57,42,28,36,29,23,86,72,35,30.36,30.31,30.24,10,8,0,5,0,,0.00,0,Fog,220
2012-12-15,54,44,33,44,34,28,87,75,40,30.30,30.22,30.13,10,7,2,8,1,,0.00,1,Rain,81
2012-12-16,57,52,48,53,48,45,88,85,75,30.12,30.01,29.88,10,4,0,10,3,,0.15,8,Fog-Rain,191
2012-12-17,61,58,55,55,54,52,88,83,75,29.88,29.78,29.62,10,6,1,16,5,,0.21,7,Rain,204
2012-12-18,64,57,46,52,45,32,84,64,41,29.84,29.67,29.60,10,10,10,14,11,20,0.00,5,,254
2012-12-19,62,52,41,37,33,30,74,55,32,30.18,29.98,29.84,10,10,10,15,7,22,0.00,0,,281
2012-12-20,62,48,36,55,39,30,86,71,52,30.21,30.02,29.50,10,9,5,22,5,33,0.18,3,Rain,119
2012-12-21,64,52,37,59,37,18,83,58,36,29.68,29.47,29.34,10,8,2,23,19,36,0.24,7,Rain,241
2012-12-22,51,44,30,23,20,17,72,42,26,30.05,29.88,29.68,10,10,10,22,14,31,0.00,0,,285
2012-12-23,53,40,27,26,23,16,81,50,27,30.13,30.04,29.98,10,10,10,13,4,,0.00,0,,220
2012-12-24,52,42,33,42,34,25,79,63,44,30.07,29.98,29.90,10,10,10,12,4,,0.00,6,Rain,169
2012-12-25,52,48,43,43,39,34,82,71,59,30.20,30.08,29.91,10,10,6,16,7,16,0.00,4,,16
2012-12-26,61,52,43,55,46,32,88,81,63,30.19,29.68,29.37,10,5,1,24,14,36,1.77,8,Rain,46
2012-12-27,50,44,37,37,31,24,80,61,39,30.05,29.76,29.49,10,10,10,18,12,28,0.00,3,,283
2012-12-28,46,39,32,31,27,23,79,61,49,30.17,30.10,30.04,10,10,8,8,5,,0.00,0,,305
2012-12-29,46,42,39,43,38,30,87,78,60,30.03,29.72,29.57,10,6,1,15,5,24,0.34,7,Rain,314
2012-12-30,46,37,28,28,22,18,72,50,32,30.37,30.16,29.85,10,10,10,23,10,34,0.00,0,,314
2012-12-31,48,37,26,28,23,15,75,55,40,30.36,30.24,30.08,10,10,10,14,5,,0.00,2,,226